Etusivu
METAR-TAF:

METAR-TAF

Lentoasemat :

Edmonton Namao, Alberta, Kanada

Leveyspiiri: 53-40N, Pituuspiiri: 113-28W, korkeus merenpinnasta: 688 m

Tämänhetkinen sää

Tämä raportti tehtiin 48 minuuttia sitten, kello 07.00 UTC
Tuuli 9 kn lännestä
Lämpötila 1°C
Kosteus 37%
Ilmanpaine 1021 hPa
Näkyvyys: 16.1 km
selkeää

METAR: CYED 250700Z 28009KT 10SM SKC 01/M12 A3015 RMK DA850FT AURBO DMLY VISBL SLP236

Aika: 01:48 (07:48 UTC)

Sääennuste

Tämä raportti tehtiin 2 tuntia ja 17 minuuttia sitten, kello 05.31 UTC
Ennuste voimassa 25. päivästä klo 06 UTC - 25. päivään klo 18 UTC
Tuuli 8 kn lännestä
Näkyvyys: 10 km
selkeää
Tulossa
25. päivästä klo 14 UTC - 25. päivään klo 16 UTC
Tuuli 10 kn lännestä puuskistuen 20 kn:hen
Hajanaisia pilviä 6000 ft:n korkeudessa

TAF: CYED 250531Z 2506/2518 27008KT P6SM SKC BECMG 2514/2516 27010G20KT SCT060 RMK FCST BASED ON AUTO OBS 251000-251800Z. NXT FCST BY 251200Z

Säähavainnot ja -ennusteet yli 4000 lentoasemalta (METAR- ja TAF-raportit).

Käytössä olevat sääasemat on merkitty karttaan keltaisilla ja punaisilla pisteillä.

Aseta hiiri pisteen päälle nähdäksesi sääaseman nimen.

Klikkaa sitten nähdäksesi säähavainnot ja -ennusteet.

Kartan vaihtaminen: klikkaa mustalla rastilla varustettuja vihreitä pisteitä, niin voit zoomata sisään; viivalla varustettua vihreää pistettä, niin voit zoomata ulos tai vihreitä nuolia, niin pääset viereisille kartoille.


METAR-TAF: